createdAt,value
2022-07-29T00:02:07.720Z,1
2022-07-29T00:12:07.532Z,1
2022-07-29T00:22:07.516Z,1
2022-07-29T00:32:07.422Z,1
2022-07-29T00:42:07.524Z,1
2022-07-29T00:52:07.411Z,1
2022-07-29T01:02:07.702Z,1
2022-07-29T01:12:07.422Z,1
2022-07-29T01:22:07.521Z,1
2022-07-29T01:32:07.704Z,1
2022-07-29T01:42:07.496Z,1
2022-07-29T01:52:07.609Z,1
2022-07-29T02:02:07.562Z,1
2022-07-29T02:12:07.619Z,1
2022-07-29T02:22:07.500Z,1
2022-07-29T02:32:07.588Z,1
2022-07-29T02:42:07.495Z,1
2022-07-29T02:52:07.602Z,1
2022-07-29T03:02:07.804Z,1
2022-07-29T03:12:07.602Z,1
2022-07-29T03:22:07.699Z,1
2022-07-29T03:32:08.087Z,1
2022-07-29T03:42:07.680Z,1
2022-07-29T03:52:07.599Z,3
2022-07-29T04:02:07.704Z,9
2022-07-29T04:12:07.780Z,18
2022-07-29T04:22:07.672Z,33
2022-07-29T04:32:07.773Z,50
2022-07-29T04:42:07.669Z,58
2022-07-29T04:52:07.760Z,68
2022-07-29T05:02:07.655Z,76
2022-07-29T05:12:07.761Z,75
2022-07-29T05:22:07.674Z,78
2022-07-29T05:32:07.756Z,81
2022-07-29T05:42:07.860Z,86
2022-07-29T05:52:07.739Z,88
2022-07-29T06:02:07.850Z,85
2022-07-29T06:12:07.756Z,89
2022-07-29T06:22:07.866Z,92
2022-07-29T06:32:07.756Z,94
2022-07-29T06:42:07.831Z,92
2022-07-29T06:52:07.939Z,92
2022-07-29T07:02:07.929Z,94
2022-07-29T07:12:07.950Z,96
2022-07-29T07:22:07.851Z,96
2022-07-29T07:32:07.986Z,97
2022-07-29T07:42:07.814Z,97
2022-07-29T07:52:07.925Z,98
2022-07-29T08:02:07.956Z,98
2022-07-29T08:12:07.920Z,98
2022-07-29T08:22:08.008Z,98
2022-07-29T08:32:07.928Z,98
2022-07-29T08:42:08.019Z,98
2022-07-29T08:52:07.936Z,98
2022-07-29T09:02:08.069Z,98
2022-07-29T09:12:08.005Z,98
2022-07-29T09:22:08.020Z,98
2022-07-29T09:32:08.016Z,98
2022-07-29T09:42:08.063Z,98
2022-07-29T09:52:07.963Z,98
2022-07-29T10:02:08.042Z,98
2022-07-29T10:12:08.139Z,98
2022-07-29T10:22:08.075Z,98
2022-07-29T10:32:08.160Z,98
2022-07-29T10:42:08.064Z,98
2022-07-29T10:52:08.161Z,98
2022-07-29T11:02:28.074Z,98
2022-07-29T11:12:08.119Z,98
2022-07-29T11:22:08.241Z,98
2022-07-29T11:32:08.135Z,98
2022-07-29T11:42:08.338Z,98
2022-07-29T11:52:08.117Z,98
2022-07-29T12:02:33.542Z,98
2022-07-29T12:12:08.412Z,98
2022-07-29T12:22:08.231Z,98
2022-07-29T12:32:14.336Z,98
2022-07-29T12:42:12.186Z,97
2022-07-29T12:52:08.120Z,97
2022-07-29T13:02:08.249Z,97
2022-07-29T13:12:08.320Z,97
2022-07-29T13:22:08.205Z,97
2022-07-29T13:32:08.303Z,97
2022-07-29T13:42:10.871Z,97
2022-07-29T13:52:08.518Z,97
2022-07-29T14:02:08.191Z,96
2022-07-29T14:12:08.305Z,96
2022-07-29T14:22:08.600Z,95
2022-07-29T14:32:08.529Z,94
2022-07-29T14:42:08.369Z,94
2022-07-29T14:52:08.285Z,94
2022-07-29T15:02:08.479Z,94
2022-07-29T15:12:08.261Z,94
2022-07-29T15:22:08.372Z,94
2022-07-29T15:32:08.323Z,96
2022-07-29T15:42:08.355Z,96
2022-07-29T15:52:08.521Z,96
2022-07-29T16:02:08.365Z,96
2022-07-29T16:12:14.599Z,96
2022-07-29T16:22:08.374Z,96
2022-07-29T16:32:08.488Z,96
2022-07-29T16:42:08.355Z,96
2022-07-29T16:52:08.477Z,96
2022-07-29T17:02:08.431Z,96
2022-07-29T17:12:08.446Z,93
2022-07-29T17:22:14.255Z,94
2022-07-29T17:32:08.572Z,94
2022-07-29T17:42:08.438Z,94
2022-07-29T17:52:08.550Z,94
2022-07-29T18:02:08.519Z,94
2022-07-29T18:12:08.542Z,94
2022-07-29T18:22:08.457Z,93
2022-07-29T18:32:08.589Z,93
2022-07-29T18:42:08.740Z,92
2022-07-29T18:52:08.582Z,82
2022-07-29T19:02:09.097Z,78
2022-07-29T19:12:08.708Z,83
2022-07-29T19:22:08.791Z,82
2022-07-29T19:32:08.630Z,80
2022-07-29T19:42:08.663Z,76
2022-07-29T19:52:08.622Z,71
2022-07-29T20:02:08.828Z,64
2022-07-29T20:12:08.616Z,50
2022-07-29T20:22:08.673Z,33
2022-07-29T20:32:08.780Z,14
2022-07-29T20:42:08.661Z,4
2022-07-29T20:52:08.762Z,2
2022-07-29T21:02:08.692Z,2
2022-07-29T21:12:08.800Z,2
2022-07-29T21:22:08.658Z,2
2022-07-29T21:32:08.753Z,2
2022-07-29T21:42:08.685Z,2
2022-07-29T21:52:08.899Z,2
2022-07-29T22:02:08.672Z,2
2022-07-29T22:12:08.748Z,2
2022-07-29T22:22:08.867Z,2
2022-07-29T22:32:08.769Z,2
2022-07-29T22:42:08.868Z,2
2022-07-29T22:52:08.767Z,2
2022-07-29T23:02:08.878Z,2
2022-07-29T23:12:08.784Z,2
2022-07-29T23:22:08.929Z,2
2022-07-29T23:32:08.847Z,2
2022-07-29T23:42:09.017Z,1
2022-07-29T23:52:08.808Z,1
